sensor_id;sensor_type;location;lat;lon;timestamp;P1;durP1;ratioP1;P2;durP2;ratioP2
13731;SDS011;6937;56.096;12.664;2024-01-06T00:01:48;3.27;;;1.20;;
13731;SDS011;6937;56.096;12.664;2024-01-06T00:04:14;2.77;;;1.53;;
13731;SDS011;6937;56.096;12.664;2024-01-06T00:06:39;2.03;;;1.40;;
13731;SDS011;6937;56.096;12.664;2024-01-06T00:09:04;4.37;;;1.73;;
13731;SDS011;6937;56.096;12.664;2024-01-06T00:11:30;3.03;;;1.83;;
13731;SDS011;6937;56.096;12.664;2024-01-06T00:13:55;1.87;;;1.37;;
13731;SDS011;6937;56.096;12.664;2024-01-06T00:16:20;3.50;;;1.60;;
13731;SDS011;6937;56.096;12.664;2024-01-06T00:18:46;1.97;;;1.20;;
13731;SDS011;6937;56.096;12.664;2024-01-06T00:21:12;1.63;;;1.10;;
13731;SDS011;6937;56.096;12.664;2024-01-06T00:23:37;0.87;;;0.80;;
13731;SDS011;6937;56.096;12.664;2024-01-06T00:26:03;1.30;;;1.00;;
13731;SDS011;6937;56.096;12.664;2024-01-06T00:28:29;2.83;;;0.90;;
13731;SDS011;6937;56.096;12.664;2024-01-06T00:30:54;1.77;;;1.40;;
13731;SDS011;6937;56.096;12.664;2024-01-06T00:33:20;11.90;;;1.20;;
13731;SDS011;6937;56.096;12.664;2024-01-06T00:35:45;2.30;;;1.27;;
13731;SDS011;6937;56.096;12.664;2024-01-06T00:38:11;1.53;;;0.90;;
13731;SDS011;6937;56.096;12.664;2024-01-06T00:40:36;1.60;;;1.10;;
13731;SDS011;6937;56.096;12.664;2024-01-06T00:43:02;2.10;;;1.40;;
13731;SDS011;6937;56.096;12.664;2024-01-06T00:45:27;2.83;;;1.47;;
13731;SDS011;6937;56.096;12.664;2024-01-06T00:47:53;0.80;;;0.70;;
13731;SDS011;6937;56.096;12.664;2024-01-06T00:50:18;2.23;;;1.20;;
13731;SDS011;6937;56.096;12.664;2024-01-06T00:52:46;2.33;;;1.23;;
13731;SDS011;6937;56.096;12.664;2024-01-06T00:55:11;2.83;;;1.53;;
13731;SDS011;6937;56.096;12.664;2024-01-06T00:57:37;1.73;;;1.13;;
13731;SDS011;6937;56.096;12.664;2024-01-06T01:00:03;2.00;;;1.43;;
13731;SDS011;6937;56.096;12.664;2024-01-06T01:02:30;1.93;;;1.17;;
13731;SDS011;6937;56.096;12.664;2024-01-06T01:04:56;3.57;;;1.17;;
13731;SDS011;6937;56.096;12.664;2024-01-06T01:07:22;2.90;;;1.10;;
13731;SDS011;6937;56.096;12.664;2024-01-06T01:09:47;2.10;;;1.13;;
13731;SDS011;6937;56.096;12.664;2024-01-06T01:12:12;1.37;;;0.70;;
13731;SDS011;6937;56.096;12.664;2024-01-06T01:14:38;2.20;;;1.30;;
13731;SDS011;6937;56.096;12.664;2024-01-06T01:17:03;1.20;;;1.10;;
13731;SDS011;6937;56.096;12.664;2024-01-06T01:19:29;4.70;;;1.13;;
13731;SDS011;6937;56.096;12.664;2024-01-06T01:21:54;2.63;;;1.70;;
13731;SDS011;6937;56.096;12.664;2024-01-06T01:24:21;2.77;;;1.57;;
13731;SDS011;6937;56.096;12.664;2024-01-06T01:26:47;4.50;;;2.00;;
13731;SDS011;6937;56.096;12.664;2024-01-06T01:29:12;3.20;;;1.87;;
13731;SDS011;6937;56.096;12.664;2024-01-06T01:31:37;3.13;;;1.77;;
13731;SDS011;6937;56.096;12.664;2024-01-06T01:34:03;4.77;;;2.33;;
13731;SDS011;6937;56.096;12.664;2024-01-06T01:36:28;4.33;;;2.43;;
13731;SDS011;6937;56.096;12.664;2024-01-06T01:38:54;6.53;;;2.17;;
13731;SDS011;6937;56.096;12.664;2024-01-06T01:41:19;4.37;;;2.03;;
13731;SDS011;6937;56.096;12.664;2024-01-06T01:43:45;4.23;;;1.60;;
13731;SDS011;6937;56.096;12.664;2024-01-06T01:46:10;4.50;;;2.10;;
13731;SDS011;6937;56.096;12.664;2024-01-06T01:48:36;4.83;;;2.60;;
13731;SDS011;6937;56.096;12.664;2024-01-06T01:51:02;6.67;;;2.10;;
13731;SDS011;6937;56.096;12.664;2024-01-06T01:53:28;5.13;;;2.80;;
13731;SDS011;6937;56.096;12.664;2024-01-06T01:55:55;6.10;;;2.00;;
13731;SDS011;6937;56.096;12.664;2024-01-06T01:58:21;4.33;;;2.30;;
13731;SDS011;6937;56.096;12.664;2024-01-06T02:00:47;5.67;;;1.87;;
13731;SDS011;6937;56.096;12.664;2024-01-06T02:03:13;5.23;;;2.10;;
13731;SDS011;6937;56.096;12.664;2024-01-06T02:05:38;3.70;;;1.90;;
13731;SDS011;6937;56.096;12.664;2024-01-06T02:08:04;3.77;;;1.90;;
13731;SDS011;6937;56.096;12.664;2024-01-06T02:10:30;2.27;;;1.63;;
13731;SDS011;6937;56.096;12.664;2024-01-06T02:12:55;2.40;;;1.70;;
13731;SDS011;6937;56.096;12.664;2024-01-06T02:15:21;4.77;;;2.23;;
13731;SDS011;6937;56.096;12.664;2024-01-06T02:17:46;3.17;;;1.33;;
13731;SDS011;6937;56.096;12.664;2024-01-06T02:20:11;2.97;;;1.60;;
13731;SDS011;6937;56.096;12.664;2024-01-06T02:22:39;2.90;;;1.50;;
13731;SDS011;6937;56.096;12.664;2024-01-06T02:25:05;3.57;;;1.73;;
13731;SDS011;6937;56.096;12.664;2024-01-06T02:27:37;2.87;;;1.60;;
13731;SDS011;6937;56.096;12.664;2024-01-06T02:30:05;2.43;;;1.43;;
13731;SDS011;6937;56.096;12.664;2024-01-06T02:32:32;2.13;;;1.57;;
13731;SDS011;6937;56.096;12.664;2024-01-06T02:34:57;2.13;;;1.33;;
13731;SDS011;6937;56.096;12.664;2024-01-06T02:37:23;2.67;;;1.50;;
13731;SDS011;6937;56.096;12.664;2024-01-06T02:39:48;5.53;;;2.03;;
13731;SDS011;6937;56.096;12.664;2024-01-06T02:42:13;2.57;;;1.63;;
13731;SDS011;6937;56.096;12.664;2024-01-06T02:44:39;2.37;;;1.17;;
13731;SDS011;6937;56.096;12.664;2024-01-06T02:47:04;2.20;;;1.33;;
13731;SDS011;6937;56.096;12.664;2024-01-06T02:49:30;2.83;;;1.50;;
13731;SDS011;6937;56.096;12.664;2024-01-06T02:51:55;2.20;;;1.13;;
13731;SDS011;6937;56.096;12.664;2024-01-06T02:54:20;4.87;;;1.17;;
13731;SDS011;6937;56.096;12.664;2024-01-06T02:56:46;2.30;;;1.33;;
13731;SDS011;6937;56.096;12.664;2024-01-06T02:59:11;1.90;;;1.03;;
13731;SDS011;6937;56.096;12.664;2024-01-06T03:01:36;3.07;;;1.33;;
13731;SDS011;6937;56.096;12.664;2024-01-06T03:04:02;6.43;;;1.80;;
13731;SDS011;6937;56.096;12.664;2024-01-06T03:06:27;4.97;;;1.30;;
13731;SDS011;6937;56.096;12.664;2024-01-06T03:08:53;3.70;;;1.47;;
13731;SDS011;6937;56.096;12.664;2024-01-06T03:11:18;2.83;;;1.40;;
13731;SDS011;6937;56.096;12.664;2024-01-06T03:13:43;1.93;;;1.10;;
13731;SDS011;6937;56.096;12.664;2024-01-06T03:16:10;2.53;;;1.13;;
13731;SDS011;6937;56.096;12.664;2024-01-06T03:18:36;2.67;;;1.43;;
13731;SDS011;6937;56.096;12.664;2024-01-06T03:21:02;1.97;;;1.20;;
13731;SDS011;6937;56.096;12.664;2024-01-06T03:23:27;1.73;;;1.10;;
13731;SDS011;6937;56.096;12.664;2024-01-06T03:25:52;2.30;;;1.10;;
13731;SDS011;6937;56.096;12.664;2024-01-06T03:28:18;3.10;;;1.13;;
13731;SDS011;6937;56.096;12.664;2024-01-06T03:30:43;1.87;;;1.10;;
13731;SDS011;6937;56.096;12.664;2024-01-06T03:33:08;3.97;;;1.43;;
13731;SDS011;6937;56.096;12.664;2024-01-06T03:35:34;2.50;;;1.30;;
13731;SDS011;6937;56.096;12.664;2024-01-06T03:37:59;2.80;;;1.20;;
13731;SDS011;6937;56.096;12.664;2024-01-06T03:40:24;2.90;;;1.13;;
13731;SDS011;6937;56.096;12.664;2024-01-06T03:42:50;1.13;;;0.60;;
13731;SDS011;6937;56.096;12.664;2024-01-06T03:45:15;0.63;;;0.40;;
13731;SDS011;6937;56.096;12.664;2024-01-06T03:47:40;1.03;;;0.33;;
13731;SDS011;6937;56.096;12.664;2024-01-06T03:50:06;1.93;;;1.13;;
13731;SDS011;6937;56.096;12.664;2024-01-06T03:52:31;1.50;;;1.00;;
13731;SDS011;6937;56.096;12.664;2024-01-06T03:54:57;2.10;;;1.37;;
13731;SDS011;6937;56.096;12.664;2024-01-06T03:57:22;1.87;;;1.10;;
13731;SDS011;6937;56.096;12.664;2024-01-06T03:59:47;2.00;;;0.90;;
13731;SDS011;6937;56.096;12.664;2024-01-06T04:02:13;1.13;;;0.60;;
13731;SDS011;6937;56.096;12.664;2024-01-06T04:04:38;1.90;;;0.70;;
13731;SDS011;6937;56.096;12.664;2024-01-06T04:07:04;7.50;;;1.03;;
13731;SDS011;6937;56.096;12.664;2024-01-06T04:09:30;1.90;;;1.07;;
13731;SDS011;6937;56.096;12.664;2024-01-06T04:11:55;0.97;;;0.70;;
13731;SDS011;6937;56.096;12.664;2024-01-06T04:14:20;1.43;;;1.03;;
13731;SDS011;6937;56.096;12.664;2024-01-06T04:16:46;1.87;;;0.40;;
13731;SDS011;6937;56.096;12.664;2024-01-06T04:19:11;3.40;;;0.73;;
13731;SDS011;6937;56.096;12.664;2024-01-06T04:21:37;0.60;;;0.60;;
13731;SDS011;6937;56.096;12.664;2024-01-06T04:24:03;2.00;;;0.90;;
13731;SDS011;6937;56.096;12.664;2024-01-06T04:26:28;0.20;;;0.20;;
13731;SDS011;6937;56.096;12.664;2024-01-06T04:28:54;0.87;;;0.50;;
13731;SDS011;6937;56.096;12.664;2024-01-06T04:31:19;1.30;;;0.67;;
13731;SDS011;6937;56.096;12.664;2024-01-06T04:33:44;0.80;;;0.43;;
13731;SDS011;6937;56.096;12.664;2024-01-06T04:36:10;1.70;;;0.70;;
13731;SDS011;6937;56.096;12.664;2024-01-06T04:38:35;0.50;;;0.30;;
13731;SDS011;6937;56.096;12.664;2024-01-06T04:41:00;0.47;;;0.40;;
13731;SDS011;6937;56.096;12.664;2024-01-06T04:43:26;0.73;;;0.70;;
13731;SDS011;6937;56.096;12.664;2024-01-06T04:45:51;4.50;;;0.30;;
13731;SDS011;6937;56.096;12.664;2024-01-06T04:48:16;0.30;;;0.20;;
13731;SDS011;6937;56.096;12.664;2024-01-06T04:50:42;0.83;;;0.83;;
13731;SDS011;6937;56.096;12.664;2024-01-06T04:53:07;0.33;;;0.33;;
13731;SDS011;6937;56.096;12.664;2024-01-06T04:55:33;0.63;;;0.60;;
13731;SDS011;6937;56.096;12.664;2024-01-06T04:57:58;2.27;;;0.83;;
13731;SDS011;6937;56.096;12.664;2024-01-06T05:00:24;0.50;;;0.33;;
13731;SDS011;6937;56.096;12.664;2024-01-06T05:02:50;0.37;;;0.23;;
13731;SDS011;6937;56.096;12.664;2024-01-06T05:05:15;1.10;;;0.30;;
13731;SDS011;6937;56.096;12.664;2024-01-06T05:07:41;0.37;;;0.20;;
13731;SDS011;6937;56.096;12.664;2024-01-06T05:10:06;0.10;;;0.10;;
13731;SDS011;6937;56.096;12.664;2024-01-06T05:12:32;1.57;;;1.00;;
13731;SDS011;6937;56.096;12.664;2024-01-06T05:14:58;0.30;;;0.30;;
13731;SDS011;6937;56.096;12.664;2024-01-06T05:17:23;0.23;;;0.23;;
13731;SDS011;6937;56.096;12.664;2024-01-06T05:19:48;0.20;;;0.20;;
13731;SDS011;6937;56.096;12.664;2024-01-06T05:22:14;0.43;;;0.43;;
13731;SDS011;6937;56.096;12.664;2024-01-06T05:24:39;1.37;;;0.57;;
13731;SDS011;6937;56.096;12.664;2024-01-06T05:27:04;0.00;;;0.00;;
13731;SDS011;6937;56.096;12.664;2024-01-06T05:29:30;0.63;;;0.63;;
13731;SDS011;6937;56.096;12.664;2024-01-06T05:31:55;0.93;;;0.93;;
13731;SDS011;6937;56.096;12.664;2024-01-06T05:34:20;0.10;;;0.10;;
13731;SDS011;6937;56.096;12.664;2024-01-06T05:36:46;0.00;;;0.00;;
13731;SDS011;6937;56.096;12.664;2024-01-06T05:39:11;0.17;;;0.10;;
13731;SDS011;6937;56.096;12.664;2024-01-06T05:41:37;0.30;;;0.20;;
13731;SDS011;6937;56.096;12.664;2024-01-06T05:44:04;0.97;;;0.77;;
13731;SDS011;6937;56.096;12.664;2024-01-06T05:46:29;0.90;;;0.73;;
13731;SDS011;6937;56.096;12.664;2024-01-06T05:48:55;0.20;;;0.20;;
13731;SDS011;6937;56.096;12.664;2024-01-06T05:51:21;0.53;;;0.53;;
13731;SDS011;6937;56.096;12.664;2024-01-06T05:53:47;0.07;;;0.03;;
13731;SDS011;6937;56.096;12.664;2024-01-06T05:56:21;0.10;;;0.10;;
13731;SDS011;6937;56.096;12.664;2024-01-06T05:58:49;0.10;;;0.10;;
13731;SDS011;6937;56.096;12.664;2024-01-06T06:01:14;0.10;;;0.10;;
13731;SDS011;6937;56.096;12.664;2024-01-06T06:03:40;0.97;;;0.87;;
13731;SDS011;6937;56.096;12.664;2024-01-06T06:06:06;0.23;;;0.20;;
13731;SDS011;6937;56.096;12.664;2024-01-06T06:08:31;0.93;;;0.20;;
13731;SDS011;6937;56.096;12.664;2024-01-06T06:10:56;0.13;;;0.13;;
13731;SDS011;6937;56.096;12.664;2024-01-06T06:13:27;1.27;;;0.87;;
13731;SDS011;6937;56.096;12.664;2024-01-06T06:15:53;2.40;;;0.43;;
13731;SDS011;6937;56.096;12.664;2024-01-06T06:18:19;1.10;;;0.40;;
13731;SDS011;6937;56.096;12.664;2024-01-06T06:20:45;0.30;;;0.00;;
13731;SDS011;6937;56.096;12.664;2024-01-06T06:23:10;0.23;;;0.10;;
13731;SDS011;6937;56.096;12.664;2024-01-06T06:25:37;0.10;;;0.10;;
13731;SDS011;6937;56.096;12.664;2024-01-06T06:28:03;0.33;;;0.30;;
13731;SDS011;6937;56.096;12.664;2024-01-06T06:30:29;0.20;;;0.20;;
13731;SDS011;6937;56.096;12.664;2024-01-06T06:32:54;0.10;;;0.10;;
13731;SDS011;6937;56.096;12.664;2024-01-06T06:35:20;0.20;;;0.20;;
13731;SDS011;6937;56.096;12.664;2024-01-06T06:37:45;0.03;;;0.03;;
13731;SDS011;6937;56.096;12.664;2024-01-06T06:40:10;0.13;;;0.13;;
13731;SDS011;6937;56.096;12.664;2024-01-06T06:42:36;0.30;;;0.30;;
13731;SDS011;6937;56.096;12.664;2024-01-06T06:45:01;0.20;;;0.10;;
13731;SDS011;6937;56.096;12.664;2024-01-06T06:47:27;1.07;;;0.37;;
13731;SDS011;6937;56.096;12.664;2024-01-06T06:49:52;0.27;;;0.20;;
13731;SDS011;6937;56.096;12.664;2024-01-06T06:52:18;0.53;;;0.53;;
13731;SDS011;6937;56.096;12.664;2024-01-06T06:54:43;2.73;;;1.27;;
13731;SDS011;6937;56.096;12.664;2024-01-06T06:57:08;0.00;;;0.00;;
13731;SDS011;6937;56.096;12.664;2024-01-06T06:59:34;0.03;;;0.00;;
13731;SDS011;6937;56.096;12.664;2024-01-06T07:01:59;0.00;;;0.00;;
13731;SDS011;6937;56.096;12.664;2024-01-06T07:04:24;0.10;;;0.10;;
13731;SDS011;6937;56.096;12.664;2024-01-06T07:06:51;0.30;;;0.30;;
13731;SDS011;6937;56.096;12.664;2024-01-06T07:09:16;0.00;;;0.00;;
13731;SDS011;6937;56.096;12.664;2024-01-06T07:11:41;0.10;;;0.10;;
13731;SDS011;6937;56.096;12.664;2024-01-06T07:14:07;0.27;;;0.23;;
13731;SDS011;6937;56.096;12.664;2024-01-06T07:16:32;0.00;;;0.00;;
13731;SDS011;6937;56.096;12.664;2024-01-06T07:18:57;0.10;;;0.10;;
13731;SDS011;6937;56.096;12.664;2024-01-06T07:21:23;0.33;;;0.33;;
13731;SDS011;6937;56.096;12.664;2024-01-06T07:23:48;0.30;;;0.30;;
13731;SDS011;6937;56.096;12.664;2024-01-06T07:26:13;1.10;;;0.70;;
13731;SDS011;6937;56.096;12.664;2024-01-06T07:28:39;0.20;;;0.10;;
13731;SDS011;6937;56.096;12.664;2024-01-06T07:31:04;0.70;;;0.57;;
13731;SDS011;6937;56.096;12.664;2024-01-06T07:33:30;0.33;;;0.33;;
13731;SDS011;6937;56.096;12.664;2024-01-06T07:35:56;0.77;;;0.77;;
13731;SDS011;6937;56.096;12.664;2024-01-06T07:38:21;0.10;;;0.10;;
13731;SDS011;6937;56.096;12.664;2024-01-06T07:40:46;0.87;;;0.47;;
13731;SDS011;6937;56.096;12.664;2024-01-06T07:43:12;0.00;;;0.00;;
13731;SDS011;6937;56.096;12.664;2024-01-06T07:45:37;0.00;;;0.00;;
13731;SDS011;6937;56.096;12.664;2024-01-06T07:48:03;0.30;;;0.30;;
13731;SDS011;6937;56.096;12.664;2024-01-06T07:50:28;0.37;;;0.33;;
13731;SDS011;6937;56.096;12.664;2024-01-06T07:52:54;0.10;;;0.10;;
13731;SDS011;6937;56.096;12.664;2024-01-06T07:55:19;0.20;;;0.20;;
13731;SDS011;6937;56.096;12.664;2024-01-06T07:57:45;0.30;;;0.30;;
13731;SDS011;6937;56.096;12.664;2024-01-06T08:00:11;0.10;;;0.07;;
13731;SDS011;6937;56.096;12.664;2024-01-06T08:02:39;0.30;;;0.30;;
13731;SDS011;6937;56.096;12.664;2024-01-06T08:05:08;0.90;;;0.43;;
13731;SDS011;6937;56.096;12.664;2024-01-06T08:07:33;0.97;;;0.87;;
13731;SDS011;6937;56.096;12.664;2024-01-06T08:09:59;0.00;;;0.00;;
13731;SDS011;6937;56.096;12.664;2024-01-06T08:12:24;1.47;;;0.83;;
13731;SDS011;6937;56.096;12.664;2024-01-06T08:14:50;2.03;;;0.73;;
13731;SDS011;6937;56.096;12.664;2024-01-06T08:17:15;0.83;;;0.83;;
13731;SDS011;6937;56.096;12.664;2024-01-06T08:19:41;0.80;;;0.80;;
13731;SDS011;6937;56.096;12.664;2024-01-06T08:22:07;0.10;;;0.10;;
13731;SDS011;6937;56.096;12.664;2024-01-06T08:24:32;0.13;;;0.13;;
13731;SDS011;6937;56.096;12.664;2024-01-06T08:26:58;0.73;;;0.30;;
13731;SDS011;6937;56.096;12.664;2024-01-06T08:29:23;0.20;;;0.20;;
13731;SDS011;6937;56.096;12.664;2024-01-06T08:31:48;0.37;;;0.37;;
13731;SDS011;6937;56.096;12.664;2024-01-06T08:34:17;1.27;;;0.60;;
13731;SDS011;6937;56.096;12.664;2024-01-06T08:36:42;1.23;;;1.13;;
13731;SDS011;6937;56.096;12.664;2024-01-06T08:39:08;1.13;;;0.77;;
13731;SDS011;6937;56.096;12.664;2024-01-06T08:41:33;2.57;;;0.80;;
13731;SDS011;6937;56.096;12.664;2024-01-06T08:43:59;0.77;;;0.63;;
13731;SDS011;6937;56.096;12.664;2024-01-06T08:46:24;0.43;;;0.43;;
13731;SDS011;6937;56.096;12.664;2024-01-06T08:48:50;0.00;;;0.00;;
13731;SDS011;6937;56.096;12.664;2024-01-06T08:51:15;0.10;;;0.10;;
13731;SDS011;6937;56.096;12.664;2024-01-06T08:53:41;0.43;;;0.43;;
13731;SDS011;6937;56.096;12.664;2024-01-06T08:56:08;0.20;;;0.13;;
13731;SDS011;6937;56.096;12.664;2024-01-06T08:58:34;0.00;;;0.00;;
13731;SDS011;6937;56.096;12.664;2024-01-06T09:00:59;0.03;;;0.03;;
13731;SDS011;6937;56.096;12.664;2024-01-06T09:03:24;0.00;;;0.00;;
13731;SDS011;6937;56.096;12.664;2024-01-06T09:05:55;0.73;;;0.73;;
13731;SDS011;6937;56.096;12.664;2024-01-06T09:08:21;0.03;;;0.03;;
13731;SDS011;6937;56.096;12.664;2024-01-06T09:10:47;0.30;;;0.30;;
13731;SDS011;6937;56.096;12.664;2024-01-06T09:13:13;1.20;;;0.67;;
13731;SDS011;6937;56.096;12.664;2024-01-06T09:15:38;0.77;;;0.40;;
13731;SDS011;6937;56.096;12.664;2024-01-06T09:18:03;0.60;;;0.20;;
13731;SDS011;6937;56.096;12.664;2024-01-06T09:20:29;2.00;;;1.03;;
13731;SDS011;6937;56.096;12.664;2024-01-06T09:22:54;0.63;;;0.50;;
13731;SDS011;6937;56.096;12.664;2024-01-06T09:25:20;0.63;;;0.37;;
13731;SDS011;6937;56.096;12.664;2024-01-06T09:27:48;0.97;;;0.87;;
13731;SDS011;6937;56.096;12.664;2024-01-06T09:30:13;1.00;;;0.43;;
13731;SDS011;6937;56.096;12.664;2024-01-06T09:32:39;0.20;;;0.20;;
13731;SDS011;6937;56.096;12.664;2024-01-06T09:35:04;1.10;;;0.77;;
13731;SDS011;6937;56.096;12.664;2024-01-06T09:37:30;0.80;;;0.80;;
13731;SDS011;6937;56.096;12.664;2024-01-06T09:39:56;1.33;;;0.67;;
13731;SDS011;6937;56.096;12.664;2024-01-06T09:42:21;1.07;;;0.57;;
13731;SDS011;6937;56.096;12.664;2024-01-06T09:44:46;1.27;;;0.67;;
13731;SDS011;6937;56.096;12.664;2024-01-06T09:47:12;1.40;;;0.80;;
13731;SDS011;6937;56.096;12.664;2024-01-06T09:49:38;1.00;;;0.80;;
13731;SDS011;6937;56.096;12.664;2024-01-06T09:52:04;1.50;;;0.57;;
13731;SDS011;6937;56.096;12.664;2024-01-06T09:54:38;2.90;;;0.40;;
13731;SDS011;6937;56.096;12.664;2024-01-06T09:57:06;1.33;;;0.60;;
13731;SDS011;6937;56.096;12.664;2024-01-06T09:59:32;0.60;;;0.60;;
13731;SDS011;6937;56.096;12.664;2024-01-06T10:01:59;0.60;;;0.60;;
13731;SDS011;6937;56.096;12.664;2024-01-06T10:04:26;1.40;;;1.03;;
13731;SDS011;6937;56.096;12.664;2024-01-06T10:06:51;1.43;;;1.20;;
13731;SDS011;6937;56.096;12.664;2024-01-06T10:09:16;0.20;;;0.17;;
13731;SDS011;6937;56.096;12.664;2024-01-06T10:11:42;0.30;;;0.30;;
13731;SDS011;6937;56.096;12.664;2024-01-06T10:14:08;0.10;;;0.10;;
13731;SDS011;6937;56.096;12.664;2024-01-06T10:16:33;0.10;;;0.00;;
13731;SDS011;6937;56.096;12.664;2024-01-06T10:18:59;0.23;;;0.23;;
13731;SDS011;6937;56.096;12.664;2024-01-06T10:21:25;0.63;;;0.63;;
13731;SDS011;6937;56.096;12.664;2024-01-06T10:23:51;0.00;;;0.00;;
13731;SDS011;6937;56.096;12.664;2024-01-06T10:26:18;0.20;;;0.20;;
13731;SDS011;6937;56.096;12.664;2024-01-06T10:28:44;1.70;;;0.77;;
13731;SDS011;6937;56.096;12.664;2024-01-06T10:31:09;0.03;;;0.03;;
13731;SDS011;6937;56.096;12.664;2024-01-06T10:33:34;0.83;;;0.30;;
13731;SDS011;6937;56.096;12.664;2024-01-06T10:36:00;1.83;;;0.93;;
13731;SDS011;6937;56.096;12.664;2024-01-06T10:38:26;0.60;;;0.53;;
13731;SDS011;6937;56.096;12.664;2024-01-06T10:40:55;0.10;;;0.10;;
13731;SDS011;6937;56.096;12.664;2024-01-06T10:43:23;0.10;;;0.10;;
13731;SDS011;6937;56.096;12.664;2024-01-06T10:45:50;2.10;;;1.47;;
13731;SDS011;6937;56.096;12.664;2024-01-06T10:48:18;0.67;;;0.30;;
13731;SDS011;6937;56.096;12.664;2024-01-06T10:50:45;1.10;;;0.73;;
13731;SDS011;6937;56.096;12.664;2024-01-06T10:53:12;0.50;;;0.30;;
13731;SDS011;6937;56.096;12.664;2024-01-06T10:55:40;3.70;;;0.87;;
13731;SDS011;6937;56.096;12.664;2024-01-06T10:58:06;1.40;;;0.40;;
13731;SDS011;6937;56.096;12.664;2024-01-06T11:00:33;1.23;;;0.60;;
13731;SDS011;6937;56.096;12.664;2024-01-06T11:02:59;1.53;;;1.07;;
13731;SDS011;6937;56.096;12.664;2024-01-06T11:05:25;1.57;;;1.10;;
13731;SDS011;6937;56.096;12.664;2024-01-06T11:07:52;1.37;;;0.80;;
13731;SDS011;6937;56.096;12.664;2024-01-06T11:10:23;2.47;;;0.93;;
13731;SDS011;6937;56.096;12.664;2024-01-06T11:15:47;1.17;;;0.50;;
13731;SDS011;6937;56.096;12.664;2024-01-06T11:18:32;0.97;;;0.97;;
13731;SDS011;6937;56.096;12.664;2024-01-06T11:21:18;1.03;;;0.63;;
13731;SDS011;6937;56.096;12.664;2024-01-06T11:26:49;1.43;;;1.00;;
13731;SDS011;6937;56.096;12.664;2024-01-06T11:29:15;1.43;;;0.90;;
13731;SDS011;6937;56.096;12.664;2024-01-06T11:31:42;1.27;;;0.93;;
13731;SDS011;6937;56.096;12.664;2024-01-06T11:34:17;0.63;;;0.50;;
13731;SDS011;6937;56.096;12.664;2024-01-06T11:36:44;2.17;;;1.03;;
13731;SDS011;6937;56.096;12.664;2024-01-06T11:42:07;0.80;;;0.63;;
13731;SDS011;6937;56.096;12.664;2024-01-06T11:44:39;0.80;;;0.70;;
13731;SDS011;6937;56.096;12.664;2024-01-06T11:47:05;4.27;;;1.40;;
13731;SDS011;6937;56.096;12.664;2024-01-06T11:49:31;1.80;;;1.17;;
13731;SDS011;6937;56.096;12.664;2024-01-06T11:51:57;1.23;;;1.03;;
13731;SDS011;6937;56.096;12.664;2024-01-06T11:54:22;0.97;;;0.70;;
13731;SDS011;6937;56.096;12.664;2024-01-06T11:56:48;1.93;;;0.93;;
13731;SDS011;6937;56.096;12.664;2024-01-06T11:59:14;1.70;;;0.93;;
13731;SDS011;6937;56.096;12.664;2024-01-06T12:01:39;1.90;;;1.20;;
13731;SDS011;6937;56.096;12.664;2024-01-06T12:04:05;4.73;;;1.40;;
13731;SDS011;6937;56.096;12.664;2024-01-06T12:06:31;2.07;;;1.17;;
13731;SDS011;6937;56.096;12.664;2024-01-06T12:09:07;0.93;;;0.73;;
13731;SDS011;6937;56.096;12.664;2024-01-06T12:11:34;2.23;;;1.30;;
13731;SDS011;6937;56.096;12.664;2024-01-06T12:13:59;4.03;;;1.33;;
13731;SDS011;6937;56.096;12.664;2024-01-06T12:16:25;2.53;;;1.30;;
13731;SDS011;6937;56.096;12.664;2024-01-06T12:18:55;0.67;;;0.67;;
13731;SDS011;6937;56.096;12.664;2024-01-06T12:21:22;0.73;;;0.60;;
13731;SDS011;6937;56.096;12.664;2024-01-06T12:23:48;1.33;;;1.03;;
13731;SDS011;6937;56.096;12.664;2024-01-06T12:26:13;0.60;;;0.50;;
13731;SDS011;6937;56.096;12.664;2024-01-06T12:28:39;0.97;;;0.57;;
13731;SDS011;6937;56.096;12.664;2024-01-06T12:31:04;3.23;;;1.33;;
13731;SDS011;6937;56.096;12.664;2024-01-06T12:33:34;1.53;;;0.80;;
13731;SDS011;6937;56.096;12.664;2024-01-06T12:36:02;2.37;;;0.90;;
13731;SDS011;6937;56.096;12.664;2024-01-06T12:38:29;2.17;;;1.10;;
13731;SDS011;6937;56.096;12.664;2024-01-06T12:40:55;1.30;;;0.87;;
13731;SDS011;6937;56.096;12.664;2024-01-06T12:43:21;2.87;;;1.20;;
13731;SDS011;6937;56.096;12.664;2024-01-06T12:45:46;1.10;;;0.87;;
13731;SDS011;6937;56.096;12.664;2024-01-06T12:48:11;0.97;;;0.77;;
13731;SDS011;6937;56.096;12.664;2024-01-06T12:50:37;1.67;;;1.00;;
13731;SDS011;6937;56.096;12.664;2024-01-06T12:53:02;1.98;;;1.00;;
13731;SDS011;6937;56.096;12.664;2024-01-06T12:55:28;2.37;;;1.37;;
13731;SDS011;6937;56.096;12.664;2024-01-06T12:57:53;3.08;;;1.05;;
13731;SDS011;6937;56.096;12.664;2024-01-06T13:00:19;2.53;;;1.13;;
13731;SDS011;6937;56.096;12.664;2024-01-06T13:02:44;2.22;;;1.48;;
13731;SDS011;6937;56.096;12.664;2024-01-06T13:05:10;3.40;;;1.27;;
13731;SDS011;6937;56.096;12.664;2024-01-06T13:07:35;2.75;;;1.50;;
13731;SDS011;6937;56.096;12.664;2024-01-06T13:10:01;2.40;;;1.20;;
13731;SDS011;6937;56.096;12.664;2024-01-06T13:12:26;2.10;;;1.38;;
13731;SDS011;6937;56.096;12.664;2024-01-06T13:14:54;1.25;;;0.90;;
13731;SDS011;6937;56.096;12.664;2024-01-06T13:17:19;5.80;;;1.05;;
13731;SDS011;6937;56.096;12.664;2024-01-06T13:19:45;1.80;;;1.40;;
13731;SDS011;6937;56.096;12.664;2024-01-06T13:22:10;1.93;;;1.43;;
13731;SDS011;6937;56.096;12.664;2024-01-06T13:24:35;2.33;;;1.38;;
13731;SDS011;6937;56.096;12.664;2024-01-06T13:27:01;3.13;;;1.83;;
13731;SDS011;6937;56.096;12.664;2024-01-06T13:29:28;2.13;;;1.20;;
13731;SDS011;6937;56.096;12.664;2024-01-06T13:31:54;2.53;;;1.50;;
13731;SDS011;6937;56.096;12.664;2024-01-06T13:34:19;2.40;;;1.53;;
13731;SDS011;6937;56.096;12.664;2024-01-06T13:36:45;3.80;;;1.83;;
13731;SDS011;6937;56.096;12.664;2024-01-06T13:39:10;3.30;;;1.80;;
13731;SDS011;6937;56.096;12.664;2024-01-06T13:41:56;5.38;;;1.63;;
13731;SDS011;6937;56.096;12.664;2024-01-06T13:44:21;3.72;;;1.90;;
13731;SDS011;6937;56.096;12.664;2024-01-06T13:46:47;4.32;;;1.70;;
13731;SDS011;6937;56.096;12.664;2024-01-06T13:49:15;4.57;;;2.05;;
13731;SDS011;6937;56.096;12.664;2024-01-06T13:51:41;3.30;;;1.60;;
13731;SDS011;6937;56.096;12.664;2024-01-06T13:54:07;3.53;;;2.10;;
13731;SDS011;6937;56.096;12.664;2024-01-06T13:56:32;2.92;;;1.80;;
13731;SDS011;6937;56.096;12.664;2024-01-06T13:58:58;3.28;;;2.50;;
13731;SDS011;6937;56.096;12.664;2024-01-06T14:01:24;4.00;;;2.08;;
13731;SDS011;6937;56.096;12.664;2024-01-06T14:03:50;3.35;;;2.03;;
13731;SDS011;6937;56.096;12.664;2024-01-06T14:06:15;4.45;;;2.15;;
13731;SDS011;6937;56.096;12.664;2024-01-06T14:08:43;3.47;;;2.60;;
13731;SDS011;6937;56.096;12.664;2024-01-06T14:11:08;4.65;;;2.20;;
13731;SDS011;6937;56.096;12.664;2024-01-06T14:13:34;3.10;;;2.25;;
13731;SDS011;6937;56.096;12.664;2024-01-06T14:15:59;2.75;;;2.10;;
13731;SDS011;6937;56.096;12.664;2024-01-06T14:18:25;2.53;;;2.03;;
13731;SDS011;6937;56.096;12.664;2024-01-06T14:20:52;3.03;;;1.77;;
13731;SDS011;6937;56.096;12.664;2024-01-06T14:23:20;3.53;;;1.87;;
13731;SDS011;6937;56.096;12.664;2024-01-06T14:25:45;3.58;;;1.90;;
13731;SDS011;6937;56.096;12.664;2024-01-06T14:28:10;3.03;;;2.13;;
13731;SDS011;6937;56.096;12.664;2024-01-06T14:30:36;3.60;;;2.00;;
13731;SDS011;6937;56.096;12.664;2024-01-06T14:33:02;3.13;;;2.03;;
13731;SDS011;6937;56.096;12.664;2024-01-06T14:35:27;3.37;;;2.00;;
13731;SDS011;6937;56.096;12.664;2024-01-06T14:37:52;3.10;;;2.10;;
13731;SDS011;6937;56.096;12.664;2024-01-06T14:40:19;4.83;;;2.43;;
13731;SDS011;6937;56.096;12.664;2024-01-06T14:42:44;3.10;;;2.23;;
13731;SDS011;6937;56.096;12.664;2024-01-06T14:45:10;3.10;;;2.20;;
13731;SDS011;6937;56.096;12.664;2024-01-06T14:47:35;3.50;;;2.17;;
13731;SDS011;6937;56.096;12.664;2024-01-06T14:50:00;6.83;;;2.33;;